Archival Weather

Komakuk Beach

Komakuk Beach, Canada (CWKM)

Report from: Saturday, April 1, 2023 6:00 PM UTC
Current time: Tuesday, July 16, 2024 9:09 AM UTC

Current weather – Weather history – Daily summaries
Weather forecast

Present weatherSM
Temperature-15.0°C (5.0°F)
Wind chill-27.5°C (-17.5°F)
Dew point-18.0°C (-0.4°F)
Winds 22 kts (11.3 m/s, 25.3 mph) East (100°)
Visibility0 ft. (0 m)
Clouds Sky clear
Altimeter29.90 in.Hg (1013 mB)
Relative humidity78 %
Density altitude-3,743 ft. (-1,141 m)
Remarks Fully automated report
No clouds detected
Flight conditions Low Instrument Meteorological Conditions
Raw dataCWKM 011800Z AUTO 10022KT ////SM NCD M15/M18 A2990
An error has occurred. This application may no longer respond until reloaded. Reload 🗙